sensor_id;sensor_type;location;lat;lon;timestamp;P1;durP1;ratioP1;P2;durP2;ratioP2
36221;SDS011;22266;52.340;4.962;2022-08-05T00:01:29;4.00;;;4.00;;
36221;SDS011;22266;52.340;4.962;2022-08-05T00:04:14;3.00;;;1.75;;
36221;SDS011;22266;52.340;4.962;2022-08-05T00:06:42;2.50;;;2.25;;
36221;SDS011;22266;52.340;4.962;2022-08-05T00:09:12;3.75;;;3.00;;
36221;SDS011;22266;52.340;4.962;2022-08-05T00:11:44;1.25;;;1.25;;
36221;SDS011;22266;52.340;4.962;2022-08-05T00:14:21;2.50;;;2.50;;
36221;SDS011;22266;52.340;4.962;2022-08-05T00:16:53;3.25;;;3.25;;
36221;SDS011;22266;52.340;4.962;2022-08-05T00:19:20;3.00;;;3.00;;
36221;SDS011;22266;52.340;4.962;2022-08-05T00:21:48;2.50;;;2.00;;
36221;SDS011;22266;52.340;4.962;2022-08-05T00:24:14;0.50;;;0.50;;
36221;SDS011;22266;52.340;4.962;2022-08-05T00:26:50;4.00;;;2.75;;
36221;SDS011;22266;52.340;4.962;2022-08-05T00:29:21;4.25;;;4.00;;
36221;SDS011;22266;52.340;4.962;2022-08-05T00:31:51;2.50;;;2.50;;
36221;SDS011;22266;52.340;4.962;2022-08-05T00:34:38;5.50;;;4.00;;
36221;SDS011;22266;52.340;4.962;2022-08-05T00:37:26;1.75;;;1.75;;
36221;SDS011;22266;52.340;4.962;2022-08-05T00:40:12;3.75;;;3.00;;
36221;SDS011;22266;52.340;4.962;2022-08-05T00:42:43;4.25;;;4.00;;
36221;SDS011;22266;52.340;4.962;2022-08-05T00:45:14;3.25;;;3.25;;
36221;SDS011;22266;52.340;4.962;2022-08-05T00:47:40;4.75;;;4.75;;
36221;SDS011;22266;52.340;4.962;2022-08-05T00:50:22;4.00;;;3.25;;
36221;SDS011;22266;52.340;4.962;2022-08-05T00:52:50;2.25;;;2.25;;
36221;SDS011;22266;52.340;4.962;2022-08-05T00:55:20;3.00;;;3.00;;
36221;SDS011;22266;52.340;4.962;2022-08-05T00:57:47;1.75;;;1.75;;
36221;SDS011;22266;52.340;4.962;2022-08-05T01:00:25;2.00;;;2.00;;
36221;SDS011;22266;52.340;4.962;2022-08-05T01:02:53;2.00;;;2.00;;
36221;SDS011;22266;52.340;4.962;2022-08-05T01:05:21;3.00;;;3.00;;
36221;SDS011;22266;52.340;4.962;2022-08-05T01:07:48;2.00;;;2.00;;
36221;SDS011;22266;52.340;4.962;2022-08-05T01:13:24;3.50;;;3.25;;
36221;SDS011;22266;52.340;4.962;2022-08-05T01:16:29;4.00;;;3.00;;
36221;SDS011;22266;52.340;4.962;2022-08-05T01:19:05;6.00;;;3.00;;
36221;SDS011;22266;52.340;4.962;2022-08-05T01:30:20;1.75;;;1.75;;
36221;SDS011;22266;52.340;4.962;2022-08-05T01:32:59;3.00;;;3.00;;
36221;SDS011;22266;52.340;4.962;2022-08-05T01:35:33;3.50;;;3.50;;
36221;SDS011;22266;52.340;4.962;2022-08-05T01:38:18;3.00;;;2.50;;
36221;SDS011;22266;52.340;4.962;2022-08-05T01:40:58;3.00;;;3.00;;
36221;SDS011;22266;52.340;4.962;2022-08-05T01:43:27;2.00;;;2.00;;
36221;SDS011;22266;52.340;4.962;2022-08-05T01:45:56;2.75;;;2.00;;
36221;SDS011;22266;52.340;4.962;2022-08-05T01:48:34;5.00;;;3.00;;
36221;SDS011;22266;52.340;4.962;2022-08-05T01:51:02;4.00;;;3.00;;
36221;SDS011;22266;52.340;4.962;2022-08-05T01:53:38;2.75;;;2.00;;
36221;SDS011;22266;52.340;4.962;2022-08-05T01:56:20;2.00;;;2.00;;
36221;SDS011;22266;52.340;4.962;2022-08-05T01:59:11;3.00;;;2.00;;
36221;SDS011;22266;52.340;4.962;2022-08-05T02:01:40;2.25;;;2.00;;
36221;SDS011;22266;52.340;4.962;2022-08-05T02:04:10;2.00;;;2.00;;
36221;SDS011;22266;52.340;4.962;2022-08-05T02:06:39;1.50;;;1.50;;
36221;SDS011;22266;52.340;4.962;2022-08-05T02:09:10;1.75;;;1.75;;
36221;SDS011;22266;52.340;4.962;2022-08-05T02:11:41;2.25;;;2.25;;
36221;SDS011;22266;52.340;4.962;2022-08-05T02:14:24;2.00;;;2.00;;
36221;SDS011;22266;52.340;4.962;2022-08-05T02:16:59;3.25;;;2.50;;
36221;SDS011;22266;52.340;4.962;2022-08-05T02:19:30;2.00;;;2.00;;
36221;SDS011;22266;52.340;4.962;2022-08-05T02:22:16;1.50;;;1.50;;
36221;SDS011;22266;52.340;4.962;2022-08-05T02:24:55;2.00;;;2.00;;
36221;SDS011;22266;52.340;4.962;2022-08-05T02:27:27;2.00;;;2.00;;
36221;SDS011;22266;52.340;4.962;2022-08-05T02:30:18;4.25;;;4.25;;
36221;SDS011;22266;52.340;4.962;2022-08-05T02:32:47;3.25;;;2.50;;
36221;SDS011;22266;52.340;4.962;2022-08-05T02:35:18;3.00;;;3.00;;
36221;SDS011;22266;52.340;4.962;2022-08-05T02:37:53;3.25;;;3.00;;
36221;SDS011;22266;52.340;4.962;2022-08-05T02:40:25;3.00;;;3.00;;
36221;SDS011;22266;52.340;4.962;2022-08-05T02:42:52;2.25;;;2.00;;
36221;SDS011;22266;52.340;4.962;2022-08-05T02:45:24;3.75;;;3.75;;
36221;SDS011;22266;52.340;4.962;2022-08-05T02:48:12;3.50;;;3.50;;
36221;SDS011;22266;52.340;4.962;2022-08-05T02:50:41;2.50;;;2.00;;
36221;SDS011;22266;52.340;4.962;2022-08-05T02:53:13;2.00;;;2.00;;
36221;SDS011;22266;52.340;4.962;2022-08-05T02:55:44;1.50;;;1.50;;
36221;SDS011;22266;52.340;4.962;2022-08-05T02:58:24;3.25;;;3.25;;
36221;SDS011;22266;52.340;4.962;2022-08-05T03:00:54;3.00;;;2.50;;
36221;SDS011;22266;52.340;4.962;2022-08-05T03:03:22;2.25;;;2.25;;
36221;SDS011;22266;52.340;4.962;2022-08-05T03:05:49;2.00;;;2.00;;
36221;SDS011;22266;52.340;4.962;2022-08-05T03:08:36;1.75;;;1.75;;
36221;SDS011;22266;52.340;4.962;2022-08-05T03:11:17;1.25;;;1.25;;
36221;SDS011;22266;52.340;4.962;2022-08-05T03:14:06;2.75;;;1.50;;
36221;SDS011;22266;52.340;4.962;2022-08-05T03:16:33;2.00;;;2.00;;
36221;SDS011;22266;52.340;4.962;2022-08-05T03:19:01;2.75;;;2.75;;
36221;SDS011;22266;52.340;4.962;2022-08-05T03:21:38;0.25;;;0.25;;
36221;SDS011;22266;52.340;4.962;2022-08-05T03:24:14;1.00;;;1.00;;
36221;SDS011;22266;52.340;4.962;2022-08-05T03:26:42;2.00;;;2.00;;
36221;SDS011;22266;52.340;4.962;2022-08-05T03:29:14;2.50;;;1.75;;
36221;SDS011;22266;52.340;4.962;2022-08-05T03:31:43;1.50;;;1.50;;
36221;SDS011;22266;52.340;4.962;2022-08-05T03:34:26;2.25;;;2.00;;
36221;SDS011;22266;52.340;4.962;2022-08-05T03:36:53;1.50;;;1.50;;
36221;SDS011;22266;52.340;4.962;2022-08-05T03:39:20;1.00;;;1.00;;
36221;SDS011;22266;52.340;4.962;2022-08-05T03:41:53;1.00;;;1.00;;
36221;SDS011;22266;52.340;4.962;2022-08-05T03:44:22;1.75;;;1.75;;
36221;SDS011;22266;52.340;4.962;2022-08-05T03:46:49;4.25;;;3.00;;
36221;SDS011;22266;52.340;4.962;2022-08-05T03:49:15;2.00;;;2.00;;
36221;SDS011;22266;52.340;4.962;2022-08-05T03:51:42;1.00;;;1.00;;
36221;SDS011;22266;52.340;4.962;2022-08-05T03:57:58;2.75;;;2.00;;
36221;SDS011;22266;52.340;4.962;2022-08-05T04:00:28;3.00;;;3.00;;
36221;SDS011;22266;52.340;4.962;2022-08-05T04:02:57;2.50;;;2.50;;
36221;SDS011;22266;52.340;4.962;2022-08-05T04:05:28;2.25;;;2.00;;
36221;SDS011;22266;52.340;4.962;2022-08-05T04:08:02;3.50;;;3.00;;
36221;SDS011;22266;52.340;4.962;2022-08-05T04:10:52;3.75;;;2.25;;
36221;SDS011;22266;52.340;4.962;2022-08-05T04:13:19;1.00;;;1.00;;
36221;SDS011;22266;52.340;4.962;2022-08-05T04:15:46;5.75;;;3.50;;
36221;SDS011;22266;52.340;4.962;2022-08-05T04:18:29;2.50;;;2.50;;
36221;SDS011;22266;52.340;4.962;2022-08-05T04:20:57;3.00;;;3.00;;
36221;SDS011;22266;52.340;4.962;2022-08-05T04:23:24;2.25;;;2.00;;
36221;SDS011;22266;52.340;4.962;2022-08-05T04:26:12;2.00;;;2.00;;
36221;SDS011;22266;52.340;4.962;2022-08-05T04:28:42;3.00;;;3.00;;
36221;SDS011;22266;52.340;4.962;2022-08-05T04:31:17;2.75;;;2.00;;
36221;SDS011;22266;52.340;4.962;2022-08-05T04:33:43;1.75;;;1.25;;
36221;SDS011;22266;52.340;4.962;2022-08-05T04:36:30;2.00;;;2.00;;
36221;SDS011;22266;52.340;4.962;2022-08-05T04:39:15;2.00;;;2.00;;
36221;SDS011;22266;52.340;4.962;2022-08-05T04:41:41;3.50;;;2.25;;
36221;SDS011;22266;52.340;4.962;2022-08-05T04:44:10;2.75;;;2.75;;
36221;SDS011;22266;52.340;4.962;2022-08-05T04:46:37;2.00;;;2.00;;
36221;SDS011;22266;52.340;4.962;2022-08-05T04:49:06;1.75;;;1.75;;
36221;SDS011;22266;52.340;4.962;2022-08-05T04:51:39;4.50;;;4.50;;
36221;SDS011;22266;52.340;4.962;2022-08-05T04:54:07;2.00;;;0.75;;
36221;SDS011;22266;52.340;4.962;2022-08-05T04:56:35;3.75;;;2.50;;
36221;SDS011;22266;52.340;4.962;2022-08-05T04:59:02;2.00;;;2.00;;
36221;SDS011;22266;52.340;4.962;2022-08-05T05:01:49;2.25;;;1.00;;
36221;SDS011;22266;52.340;4.962;2022-08-05T05:04:38;2.50;;;2.00;;
36221;SDS011;22266;52.340;4.962;2022-08-05T05:07:15;2.25;;;2.00;;
36221;SDS011;22266;52.340;4.962;2022-08-05T05:09:43;3.50;;;3.50;;
36221;SDS011;22266;52.340;4.962;2022-08-05T05:12:10;2.25;;;2.25;;
36221;SDS011;22266;52.340;4.962;2022-08-05T05:14:37;2.00;;;1.75;;
36221;SDS011;22266;52.340;4.962;2022-08-05T05:17:14;1.50;;;1.50;;
36221;SDS011;22266;52.340;4.962;2022-08-05T05:19:48;1.75;;;1.75;;
36221;SDS011;22266;52.340;4.962;2022-08-05T05:22:15;1.75;;;1.50;;
36221;SDS011;22266;52.340;4.962;2022-08-05T05:24:49;1.00;;;1.00;;
36221;SDS011;22266;52.340;4.962;2022-08-05T05:27:23;2.00;;;2.00;;
36221;SDS011;22266;52.340;4.962;2022-08-05T05:30:07;2.00;;;2.00;;
36221;SDS011;22266;52.340;4.962;2022-08-05T05:32:54;2.00;;;1.25;;
36221;SDS011;22266;52.340;4.962;2022-08-05T05:35:20;1.50;;;1.50;;
36221;SDS011;22266;52.340;4.962;2022-08-05T05:37:49;1.50;;;1.50;;
36221;SDS011;22266;52.340;4.962;2022-08-05T05:40:26;1.75;;;1.75;;
36221;SDS011;22266;52.340;4.962;2022-08-05T05:42:54;1.00;;;1.00;;
36221;SDS011;22266;52.340;4.962;2022-08-05T05:45:21;2.75;;;2.00;;
36221;SDS011;22266;52.340;4.962;2022-08-05T05:47:50;1.75;;;1.75;;
36221;SDS011;22266;52.340;4.962;2022-08-05T05:50:34;1.00;;;1.00;;
36221;SDS011;22266;52.340;4.962;2022-08-05T05:53:10;2.00;;;2.00;;
36221;SDS011;22266;52.340;4.962;2022-08-05T05:55:47;1.75;;;1.75;;
36221;SDS011;22266;52.340;4.962;2022-08-05T05:58:25;0.75;;;0.75;;
36221;SDS011;22266;52.340;4.962;2022-08-05T06:00:58;1.00;;;1.00;;
36221;SDS011;22266;52.340;4.962;2022-08-05T06:03:38;1.00;;;1.00;;
36221;SDS011;22266;52.340;4.962;2022-08-05T06:06:27;1.00;;;1.00;;
36221;SDS011;22266;52.340;4.962;2022-08-05T06:08:56;0.25;;;0.25;;
36221;SDS011;22266;52.340;4.962;2022-08-05T06:11:23;1.00;;;1.00;;
36221;SDS011;22266;52.340;4.962;2022-08-05T06:13:51;1.00;;;1.00;;
36221;SDS011;22266;52.340;4.962;2022-08-05T06:16:20;0.50;;;0.50;;
36221;SDS011;22266;52.340;4.962;2022-08-05T06:18:57;1.00;;;1.00;;
36221;SDS011;22266;52.340;4.962;2022-08-05T06:21:27;1.00;;;1.00;;
36221;SDS011;22266;52.340;4.962;2022-08-05T06:24:05;2.00;;;2.00;;
36221;SDS011;22266;52.340;4.962;2022-08-05T06:26:38;2.00;;;2.00;;
36221;SDS011;22266;52.340;4.962;2022-08-05T06:29:17;2.00;;;2.00;;
36221;SDS011;22266;52.340;4.962;2022-08-05T06:32:05;2.00;;;1.50;;
36221;SDS011;22266;52.340;4.962;2022-08-05T06:34:51;1.75;;;1.75;;
36221;SDS011;22266;52.340;4.962;2022-08-05T06:37:22;1.00;;;1.00;;
36221;SDS011;22266;52.340;4.962;2022-08-05T06:40:09;2.00;;;2.00;;
36221;SDS011;22266;52.340;4.962;2022-08-05T06:42:37;2.00;;;2.00;;
36221;SDS011;22266;52.340;4.962;2022-08-05T06:45:05;1.75;;;1.25;;
36221;SDS011;22266;52.340;4.962;2022-08-05T06:47:34;0.00;;;0.00;;
36221;SDS011;22266;52.340;4.962;2022-08-05T06:50:21;1.00;;;1.00;;
36221;SDS011;22266;52.340;4.962;2022-08-05T06:52:47;1.00;;;1.00;;
36221;SDS011;22266;52.340;4.962;2022-08-05T06:55:33;1.00;;;1.00;;
36221;SDS011;22266;52.340;4.962;2022-08-05T06:58:01;1.00;;;1.00;;
36221;SDS011;22266;52.340;4.962;2022-08-05T07:00:48;0.25;;;0.25;;
36221;SDS011;22266;52.340;4.962;2022-08-05T07:03:15;1.00;;;1.00;;
36221;SDS011;22266;52.340;4.962;2022-08-05T07:05:42;1.25;;;1.00;;
36221;SDS011;22266;52.340;4.962;2022-08-05T07:08:11;0.00;;;0.00;;
36221;SDS011;22266;52.340;4.962;2022-08-05T07:10:38;0.25;;;0.25;;
36221;SDS011;22266;52.340;4.962;2022-08-05T07:13:22;1.00;;;1.00;;
36221;SDS011;22266;52.340;4.962;2022-08-05T07:16:25;1.00;;;1.00;;
36221;SDS011;22266;52.340;4.962;2022-08-05T07:19:33;1.00;;;1.00;;
36221;SDS011;22266;52.340;4.962;2022-08-05T07:22:21;2.75;;;1.00;;
36221;SDS011;22266;52.340;4.962;2022-08-05T07:24:58;1.00;;;1.00;;
36221;SDS011;22266;52.340;4.962;2022-08-05T07:27:49;3.00;;;1.50;;
36221;SDS011;22266;52.340;4.962;2022-08-05T07:30:25;1.50;;;1.50;;
36221;SDS011;22266;52.340;4.962;2022-08-05T07:32:57;0.00;;;0.00;;
36221;SDS011;22266;52.340;4.962;2022-08-05T07:35:24;0.50;;;0.50;;
36221;SDS011;22266;52.340;4.962;2022-08-05T07:38:10;1.25;;;1.25;;
36221;SDS011;22266;52.340;4.962;2022-08-05T07:40:57;1.00;;;1.00;;
36221;SDS011;22266;52.340;4.962;2022-08-05T07:43:28;1.25;;;1.25;;
36221;SDS011;22266;52.340;4.962;2022-08-05T07:45:54;1.00;;;1.00;;
36221;SDS011;22266;52.340;4.962;2022-08-05T07:48:23;0.00;;;0.00;;
36221;SDS011;22266;52.340;4.962;2022-08-05T07:51:09;0.50;;;0.00;;
36221;SDS011;22266;52.340;4.962;2022-08-05T07:53:56;0.00;;;0.00;;
36221;SDS011;22266;52.340;4.962;2022-08-05T07:56:23;1.00;;;1.00;;
36221;SDS011;22266;52.340;4.962;2022-08-05T07:59:09;1.00;;;1.00;;
36221;SDS011;22266;52.340;4.962;2022-08-05T08:01:37;0.00;;;0.00;;
36221;SDS011;22266;52.340;4.962;2022-08-05T08:04:17;1.75;;;0.00;;
36221;SDS011;22266;52.340;4.962;2022-08-05T08:07:03;0.50;;;0.50;;
36221;SDS011;22266;52.340;4.962;2022-08-05T08:09:32;0.25;;;0.25;;
36221;SDS011;22266;52.340;4.962;2022-08-05T08:11:59;0.75;;;0.75;;
36221;SDS011;22266;52.340;4.962;2022-08-05T08:14:42;0.50;;;0.50;;
36221;SDS011;22266;52.340;4.962;2022-08-05T08:17:12;0.00;;;0.00;;
36221;SDS011;22266;52.340;4.962;2022-08-05T08:19:42;0.50;;;0.00;;
36221;SDS011;22266;52.340;4.962;2022-08-05T08:22:30;0.50;;;0.50;;
36221;SDS011;22266;52.340;4.962;2022-08-05T08:24:57;0.00;;;0.00;;
36221;SDS011;22266;52.340;4.962;2022-08-05T08:27:28;0.00;;;0.00;;
36221;SDS011;22266;52.340;4.962;2022-08-05T08:30:13;0.00;;;0.00;;
36221;SDS011;22266;52.340;4.962;2022-08-05T08:32:59;1.00;;;1.00;;
36221;SDS011;22266;52.340;4.962;2022-08-05T08:35:33;0.00;;;0.00;;
36221;SDS011;22266;52.340;4.962;2022-08-05T08:38:17;0.00;;;0.00;;
36221;SDS011;22266;52.340;4.962;2022-08-05T08:41:06;1.00;;;0.00;;
36221;SDS011;22266;52.340;4.962;2022-08-05T08:43:39;0.00;;;0.00;;
36221;SDS011;22266;52.340;4.962;2022-08-05T08:46:26;0.00;;;0.00;;
36221;SDS011;22266;52.340;4.962;2022-08-05T08:48:56;0.00;;;0.00;;
36221;SDS011;22266;52.340;4.962;2022-08-05T08:51:46;1.00;;;1.00;;
36221;SDS011;22266;52.340;4.962;2022-08-05T08:54:29;0.00;;;0.00;;
36221;SDS011;22266;52.340;4.962;2022-08-05T08:56:57;0.00;;;0.00;;
36221;SDS011;22266;52.340;4.962;2022-08-05T08:59:24;0.00;;;0.00;;
36221;SDS011;22266;52.340;4.962;2022-08-05T09:01:59;0.00;;;0.00;;
36221;SDS011;22266;52.340;4.962;2022-08-05T09:04:33;0.00;;;0.00;;
36221;SDS011;22266;52.340;4.962;2022-08-05T09:07:22;0.00;;;0.00;;
36221;SDS011;22266;52.340;4.962;2022-08-05T09:10:04;0.00;;;0.00;;
36221;SDS011;22266;52.340;4.962;2022-08-05T09:12:32;0.00;;;0.00;;
36221;SDS011;22266;52.340;4.962;2022-08-05T09:15:02;0.00;;;0.00;;
36221;SDS011;22266;52.340;4.962;2022-08-05T09:17:31;0.00;;;0.00;;
36221;SDS011;22266;52.340;4.962;2022-08-05T09:20:09;1.00;;;0.00;;
36221;SDS011;22266;52.340;4.962;2022-08-05T09:25:46;0.00;;;0.00;;
36221;SDS011;22266;52.340;4.962;2022-08-05T09:28:28;0.00;;;0.00;;
36221;SDS011;22266;52.340;4.962;2022-08-05T09:31:03;0.00;;;0.00;;
36221;SDS011;22266;52.340;4.962;2022-08-05T09:33:53;0.00;;;0.00;;
36221;SDS011;22266;52.340;4.962;2022-08-05T09:36:22;0.00;;;0.00;;
36221;SDS011;22266;52.340;4.962;2022-08-05T09:38:59;0.00;;;0.00;;
36221;SDS011;22266;52.340;4.962;2022-08-05T09:41:27;0.00;;;0.00;;
36221;SDS011;22266;52.340;4.962;2022-08-05T09:44:03;0.50;;;0.50;;
36221;SDS011;22266;52.340;4.962;2022-08-05T09:46:31;0.25;;;0.25;;
36221;SDS011;22266;52.340;4.962;2022-08-05T09:49:00;0.00;;;0.00;;
36221;SDS011;22266;52.340;4.962;2022-08-05T09:51:45;0.00;;;0.00;;
36221;SDS011;22266;52.340;4.962;2022-08-05T09:54:14;0.00;;;0.00;;
36221;SDS011;22266;52.340;4.962;2022-08-05T09:56:46;1.00;;;0.00;;
36221;SDS011;22266;52.340;4.962;2022-08-05T09:59:17;0.00;;;0.00;;
36221;SDS011;22266;52.340;4.962;2022-08-05T10:01:52;0.00;;;0.00;;
36221;SDS011;22266;52.340;4.962;2022-08-05T10:04:32;0.00;;;0.00;;
36221;SDS011;22266;52.340;4.962;2022-08-05T10:07:00;0.00;;;0.00;;
36221;SDS011;22266;52.340;4.962;2022-08-05T10:09:54;0.00;;;0.00;;
36221;SDS011;22266;52.340;4.962;2022-08-05T10:12:44;0.00;;;0.00;;
36221;SDS011;22266;52.340;4.962;2022-08-05T10:15:19;0.50;;;0.00;;
36221;SDS011;22266;52.340;4.962;2022-08-05T10:18:08;0.00;;;0.00;;
36221;SDS011;22266;52.340;4.962;2022-08-05T10:20:44;0.00;;;0.00;;
36221;SDS011;22266;52.340;4.962;2022-08-05T10:23:16;0.00;;;0.00;;
36221;SDS011;22266;52.340;4.962;2022-08-05T10:26:06;0.00;;;0.00;;
36221;SDS011;22266;52.340;4.962;2022-08-05T10:28:40;0.00;;;0.00;;
36221;SDS011;22266;52.340;4.962;2022-08-05T10:31:10;1.00;;;0.00;;
36221;SDS011;22266;52.340;4.962;2022-08-05T10:33:58;0.00;;;0.00;;
36221;SDS011;22266;52.340;4.962;2022-08-05T10:36:25;0.00;;;0.00;;
36221;SDS011;22266;52.340;4.962;2022-08-05T10:38:58;0.50;;;0.50;;
36221;SDS011;22266;52.340;4.962;2022-08-05T10:41:54;0.00;;;0.00;;
36221;SDS011;22266;52.340;4.962;2022-08-05T10:44:58;0.50;;;0.50;;
36221;SDS011;22266;52.340;4.962;2022-08-05T10:47:32;0.00;;;0.00;;
36221;SDS011;22266;52.340;4.962;2022-08-05T10:50:05;0.50;;;0.50;;
36221;SDS011;22266;52.340;4.962;2022-08-05T10:52:57;0.00;;;0.00;;
36221;SDS011;22266;52.340;4.962;2022-08-05T10:55:25;0.75;;;0.75;;
36221;SDS011;22266;52.340;4.962;2022-08-05T10:58:05;0.00;;;0.00;;
36221;SDS011;22266;52.340;4.962;2022-08-05T11:00:36;0.00;;;0.00;;
36221;SDS011;22266;52.340;4.962;2022-08-05T11:03:10;0.00;;;0.00;;
36221;SDS011;22266;52.340;4.962;2022-08-05T11:06:01;0.25;;;0.25;;
36221;SDS011;22266;52.340;4.962;2022-08-05T11:09:28;0.00;;;0.00;;
36221;SDS011;22266;52.340;4.962;2022-08-05T11:12:04;0.00;;;0.00;;
36221;SDS011;22266;52.340;4.962;2022-08-05T11:15:05;1.50;;;0.00;;
36221;SDS011;22266;52.340;4.962;2022-08-05T11:17:52;0.00;;;0.00;;
36221;SDS011;22266;52.340;4.962;2022-08-05T11:20:44;0.00;;;0.00;;
36221;SDS011;22266;52.340;4.962;2022-08-05T11:26:20;0.00;;;0.00;;
36221;SDS011;22266;52.340;4.962;2022-08-05T11:28:59;0.00;;;0.00;;
36221;SDS011;22266;52.340;4.962;2022-08-05T11:31:38;0.00;;;0.00;;
36221;SDS011;22266;52.340;4.962;2022-08-05T11:34:35;0.00;;;0.00;;
36221;SDS011;22266;52.340;4.962;2022-08-05T11:37:03;0.00;;;0.00;;
36221;SDS011;22266;52.340;4.962;2022-08-05T11:39:50;0.00;;;0.00;;
36221;SDS011;22266;52.340;4.962;2022-08-05T11:42:21;0.00;;;0.00;;
36221;SDS011;22266;52.340;4.962;2022-08-05T11:44:53;0.50;;;0.00;;
36221;SDS011;22266;52.340;4.962;2022-08-05T11:47:28;0.00;;;0.00;;
36221;SDS011;22266;52.340;4.962;2022-08-05T11:50:15;0.00;;;0.00;;
36221;SDS011;22266;52.340;4.962;2022-08-05T11:52:42;0.00;;;0.00;;
36221;SDS011;22266;52.340;4.962;2022-08-05T11:55:14;1.25;;;0.75;;
36221;SDS011;22266;52.340;4.962;2022-08-05T11:57:44;2.00;;;1.00;;
36221;SDS011;22266;52.340;4.962;2022-08-05T12:00:31;1.00;;;1.00;;
36221;SDS011;22266;52.340;4.962;2022-08-05T12:03:15;0.00;;;0.00;;
36221;SDS011;22266;52.340;4.962;2022-08-05T12:06:01;0.00;;;0.00;;
36221;SDS011;22266;52.340;4.962;2022-08-05T12:08:55;2.00;;;0.50;;
36221;SDS011;22266;52.340;4.962;2022-08-05T12:11:27;0.00;;;0.00;;
36221;SDS011;22266;52.340;4.962;2022-08-05T12:14:06;0.00;;;0.00;;
36221;SDS011;22266;52.340;4.962;2022-08-05T12:16:37;1.00;;;0.00;;
36221;SDS011;22266;52.340;4.962;2022-08-05T12:19:05;1.00;;;0.25;;
36221;SDS011;22266;52.340;4.962;2022-08-05T12:21:35;0.00;;;0.00;;
36221;SDS011;22266;52.340;4.962;2022-08-05T12:24:15;1.75;;;0.00;;
36221;SDS011;22266;52.340;4.962;2022-08-05T12:26:44;0.00;;;0.00;;
36221;SDS011;22266;52.340;4.962;2022-08-05T12:29:16;0.25;;;0.25;;
36221;SDS011;22266;52.340;4.962;2022-08-05T12:31:52;1.00;;;0.00;;
36221;SDS011;22266;52.340;4.962;2022-08-05T12:34:21;0.00;;;0.00;;
36221;SDS011;22266;52.340;4.962;2022-08-05T12:36:53;0.00;;;0.00;;
36221;SDS011;22266;52.340;4.962;2022-08-05T12:39:22;0.00;;;0.00;;
36221;SDS011;22266;52.340;4.962;2022-08-05T12:42:02;1.00;;;1.00;;
36221;SDS011;22266;52.340;4.962;2022-08-05T12:44:39;0.00;;;0.00;;
36221;SDS011;22266;52.340;4.962;2022-08-05T12:47:08;0.00;;;0.00;;
36221;SDS011;22266;52.340;4.962;2022-08-05T12:49:44;0.00;;;0.00;;
36221;SDS011;22266;52.340;4.962;2022-08-05T12:52:31;1.00;;;0.50;;
36221;SDS011;22266;52.340;4.962;2022-08-05T12:55:41;0.00;;;0.00;;
36221;SDS011;22266;52.340;4.962;2022-08-05T12:58:01;0.50;;;0.50;;
36221;SDS011;22266;52.340;4.962;2022-08-05T13:00:47;0.00;;;0.00;;
36221;SDS011;22266;52.340;4.962;2022-08-05T13:03:36;0.00;;;0.00;;
36221;SDS011;22266;52.340;4.962;2022-08-05T13:06:14;1.00;;;1.00;;
36221;SDS011;22266;52.340;4.962;2022-08-05T13:08:43;0.00;;;0.00;;
36221;SDS011;22266;52.340;4.962;2022-08-05T13:11:17;0.25;;;0.25;;
36221;SDS011;22266;52.340;4.962;2022-08-05T13:14:15;1.00;;;1.00;;
36221;SDS011;22266;52.340;4.962;2022-08-05T13:17:01;0.00;;;0.00;;
36221;SDS011;22266;52.340;4.962;2022-08-05T13:19:29;0.00;;;0.00;;
36221;SDS011;22266;52.340;4.962;2022-08-05T13:22:15;0.00;;;0.00;;
36221;SDS011;22266;52.340;4.962;2022-08-05T13:24:55;0.00;;;0.00;;
36221;SDS011;22266;52.340;4.962;2022-08-05T13:27:30;1.50;;;0.50;;
36221;SDS011;22266;52.340;4.962;2022-08-05T13:30:08;0.00;;;0.00;;
36221;SDS011;22266;52.340;4.962;2022-08-05T13:32:56;0.00;;;0.00;;
36221;SDS011;22266;52.340;4.962;2022-08-05T13:35:27;1.00;;;1.00;;
36221;SDS011;22266;52.340;4.962;2022-08-05T13:38:12;0.00;;;0.00;;
36221;SDS011;22266;52.340;4.962;2022-08-05T13:40:57;0.00;;;0.00;;
36221;SDS011;22266;52.340;4.962;2022-08-05T13:43:25;0.00;;;0.00;;
36221;SDS011;22266;52.340;4.962;2022-08-05T13:46:11;0.00;;;0.00;;
36221;SDS011;22266;52.340;4.962;2022-08-05T13:48:38;2.25;;;0.75;;
36221;SDS011;22266;52.340;4.962;2022-08-05T13:51:29;1.00;;;1.00;;
36221;SDS011;22266;52.340;4.962;2022-08-05T13:54:05;1.00;;;1.00;;
36221;SDS011;22266;52.340;4.962;2022-08-05T13:56:42;0.00;;;0.00;;
36221;SDS011;22266;52.340;4.962;2022-08-05T13:59:20;1.00;;;1.00;;
36221;SDS011;22266;52.340;4.962;2022-08-05T14:01:50;1.00;;;1.00;;
36221;SDS011;22266;52.340;4.962;2022-08-05T14:07:18;0.00;;;0.00;;
36221;SDS011;22266;52.340;4.962;2022-08-05T14:10:10;0.00;;;0.00;;
36221;SDS011;22266;52.340;4.962;2022-08-05T14:12:39;1.00;;;1.00;;
36221;SDS011;22266;52.340;4.962;2022-08-05T14:15:13;2.00;;;1.00;;
36221;SDS011;22266;52.340;4.962;2022-08-05T14:18:00;1.00;;;1.00;;
36221;SDS011;22266;52.340;4.962;2022-08-05T14:20:29;0.00;;;0.00;;
36221;SDS011;22266;52.340;4.962;2022-08-05T14:22:56;0.75;;;0.00;;
36221;SDS011;22266;52.340;4.962;2022-08-05T14:25:24;1.00;;;0.25;;
36221;SDS011;22266;52.340;4.962;2022-08-05T14:27:53;1.00;;;1.00;;
36221;SDS011;22266;52.340;4.962;2022-08-05T14:30:20;0.25;;;0.00;;
36221;SDS011;22266;52.340;4.962;2022-08-05T14:32:47;0.00;;;0.00;;
36221;SDS011;22266;52.340;4.962;2022-08-05T14:35:14;0.00;;;0.00;;
36221;SDS011;22266;52.340;4.962;2022-08-05T14:37:46;1.00;;;1.00;;
36221;SDS011;22266;52.340;4.962;2022-08-05T14:40:17;1.00;;;0.50;;
36221;SDS011;22266;52.340;4.962;2022-08-05T14:42:43;0.00;;;0.00;;
36221;SDS011;22266;52.340;4.962;2022-08-05T14:45:10;1.00;;;1.00;;
36221;SDS011;22266;52.340;4.962;2022-08-05T14:47:37;0.00;;;0.00;;
36221;SDS011;22266;52.340;4.962;2022-08-05T14:50:23;0.25;;;0.25;;
36221;SDS011;22266;52.340;4.962;2022-08-05T14:52:50;0.00;;;0.00;;
36221;SDS011;22266;52.340;4.962;2022-08-05T14:55:24;1.75;;;1.00;;
36221;SDS011;22266;52.340;4.962;2022-08-05T14:58:05;2.00;;;1.75;;
36221;SDS011;22266;52.340;4.962;2022-08-05T15:00:36;1.00;;;0.00;;
36221;SDS011;22266;52.340;4.962;2022-08-05T15:03:03;0.75;;;0.75;;
36221;SDS011;22266;52.340;4.962;2022-08-05T15:05:34;0.00;;;0.00;;
36221;SDS011;22266;52.340;4.962;2022-08-05T15:08:21;0.50;;;0.25;;
36221;SDS011;22266;52.340;4.962;2022-08-05T15:11:07;0.00;;;0.00;;
36221;SDS011;22266;52.340;4.962;2022-08-05T15:13:37;2.00;;;1.25;;
36221;SDS011;22266;52.340;4.962;2022-08-05T15:16:11;0.00;;;0.00;;
36221;SDS011;22266;52.340;4.962;2022-08-05T15:18:38;1.00;;;1.00;;
36221;SDS011;22266;52.340;4.962;2022-08-05T15:21:06;2.00;;;2.00;;
36221;SDS011;22266;52.340;4.962;2022-08-05T15:23:33;0.25;;;0.25;;
36221;SDS011;22266;52.340;4.962;2022-08-05T15:26:03;1.00;;;0.00;;
36221;SDS011;22266;52.340;4.962;2022-08-05T15:28:29;2.00;;;2.00;;
36221;SDS011;22266;52.340;4.962;2022-08-05T15:30:56;2.00;;;1.00;;
36221;SDS011;22266;52.340;4.962;2022-08-05T15:33:22;0.25;;;0.25;;
36221;SDS011;22266;52.340;4.962;2022-08-05T15:36:09;0.25;;;0.25;;
36221;SDS011;22266;52.340;4.962;2022-08-05T15:38:50;0.00;;;0.00;;
36221;SDS011;22266;52.340;4.962;2022-08-05T15:41:37;0.00;;;0.00;;
36221;SDS011;22266;52.340;4.962;2022-08-05T15:44:24;0.75;;;0.75;;
36221;SDS011;22266;52.340;4.962;2022-08-05T15:46:52;0.25;;;0.25;;
36221;SDS011;22266;52.340;4.962;2022-08-05T15:49:20;2.00;;;0.00;;
36221;SDS011;22266;52.340;4.962;2022-08-05T15:52:07;0.50;;;0.00;;
36221;SDS011;22266;52.340;4.962;2022-08-05T15:54:41;1.50;;;0.50;;
36221;SDS011;22266;52.340;4.962;2022-08-05T15:57:08;0.00;;;0.00;;
36221;SDS011;22266;52.340;4.962;2022-08-05T15:59:35;0.00;;;0.00;;
36221;SDS011;22266;52.340;4.962;2022-08-05T16:02:03;0.00;;;0.00;;
36221;SDS011;22266;52.340;4.962;2022-08-05T16:04:40;0.00;;;0.00;;